createdAt,value
2023-05-25T00:04:34.771Z,2
2023-05-25T00:10:54.605Z,2
2023-05-25T00:17:17.700Z,2.6
2023-05-25T00:23:37.555Z,2.6
2023-05-25T00:30:00.516Z,2.9
2023-05-25T00:36:20.664Z,2.9
2023-05-25T00:42:43.556Z,2.4
2023-05-25T00:49:03.585Z,2.4
2023-05-25T00:55:26.521Z,4.2
2023-05-25T01:01:46.713Z,4.2
2023-05-25T01:08:09.584Z,1.8
2023-05-25T01:14:29.606Z,1.8
2023-05-25T01:20:52.596Z,1.5
2023-05-25T01:27:12.581Z,1.5
2023-05-25T01:33:35.597Z,2.7
2023-05-25T01:39:55.636Z,2.7
2023-05-25T01:46:18.667Z,3
2023-05-25T01:52:38.611Z,3
2023-05-25T01:59:01.467Z,2.7
2023-05-25T02:05:21.658Z,2.7
2023-05-25T02:11:44.586Z,2.4
2023-05-25T02:18:04.548Z,2.4
2023-05-25T02:24:27.626Z,4.2
2023-05-25T02:30:47.659Z,4.2
2023-05-25T02:37:10.581Z,3.9
2023-05-25T02:43:30.669Z,3.9
2023-05-25T02:49:53.717Z,2.5
2023-05-25T02:56:13.604Z,2.5
2023-05-25T03:02:36.587Z,3
2023-05-25T03:08:56.646Z,3
2023-05-25T03:15:19.523Z,3.3
2023-05-25T03:21:39.692Z,3.3
2023-05-25T03:38:44.356Z,1.2
2023-05-25T03:45:04.487Z,1.2
2023-05-25T03:51:27.486Z,7
2023-05-25T03:57:47.525Z,7
2023-05-25T04:04:10.543Z,7
2023-05-25T04:10:30.549Z,7
2023-05-25T04:16:53.656Z,3.4
2023-05-25T04:23:13.661Z,3.4
2023-05-25T04:29:36.561Z,2.7
2023-05-25T04:35:56.620Z,2.7
2023-05-25T04:42:19.669Z,2.6
2023-05-25T04:48:39.482Z,2.6
2023-05-25T04:55:02.588Z,2.9
2023-05-25T05:01:22.660Z,2.9
2023-05-25T05:07:45.482Z,4.8
2023-05-25T05:14:05.709Z,4.8
2023-05-25T05:20:28.576Z,5.5
2023-05-25T05:26:58.009Z,5.5
2023-05-25T05:33:11.673Z,6.2
2023-05-25T05:39:31.630Z,6.2
2023-05-25T05:45:54.652Z,4.6
2023-05-25T05:52:14.570Z,4.6
2023-05-25T05:58:37.573Z,4.1
2023-05-25T06:04:57.698Z,4.1
2023-05-25T06:11:20.591Z,7.5
2023-05-25T06:17:40.616Z,7.5
2023-05-25T06:24:03.664Z,4.3
2023-05-25T06:30:23.542Z,4.3
2023-05-25T06:36:46.546Z,4.4
2023-05-25T06:43:06.523Z,4.4
2023-05-25T06:49:29.724Z,3.6
2023-05-25T06:55:49.548Z,3.6
2023-05-25T07:02:12.512Z,6.5
2023-05-25T07:08:32.560Z,6.5
2023-05-25T07:14:55.557Z,6
2023-05-25T07:21:15.587Z,6
2023-05-25T07:27:38.553Z,3.8
2023-05-25T07:33:58.512Z,3.8
2023-05-25T07:40:21.563Z,4.4
2023-05-25T07:46:41.658Z,4.4
2023-05-25T07:53:04.547Z,4.7
2023-05-25T07:59:24.526Z,4.7
2023-05-25T08:05:47.573Z,3.4
2023-05-25T08:12:30.453Z,3.4
2023-05-25T08:18:30.588Z,4
2023-05-25T08:24:50.582Z,4
2023-05-25T08:31:13.518Z,4.3
2023-05-25T08:37:33.569Z,4.3
2023-05-25T08:43:56.519Z,3.4
2023-05-25T08:50:16.752Z,3.4
2023-05-25T09:05:51.456Z,3.6
2023-05-25T09:12:11.519Z,3.6
2023-05-25T09:18:34.633Z,4.2
2023-05-25T09:24:54.544Z,4.2
2023-05-25T09:31:17.527Z,4.6
2023-05-25T09:37:37.946Z,4.6
2023-05-25T09:44:10.212Z,2.2
2023-05-25T09:50:20.499Z,2.2
2023-05-25T09:56:43.508Z,4.1
2023-05-25T10:03:03.525Z,4.1
2023-05-25T10:09:26.534Z,3.1
2023-05-25T10:15:46.505Z,3.1
2023-05-25T10:22:09.627Z,1.8
2023-05-25T10:28:29.565Z,1.8
2023-05-25T10:34:52.532Z,3
2023-05-25T10:41:12.559Z,3
2023-05-25T10:47:35.514Z,3.3
2023-05-25T10:53:55.519Z,3.3
2023-05-25T11:00:18.523Z,1.7
2023-05-25T11:06:39.083Z,1.7
2023-05-25T11:13:01.577Z,1.5
2023-05-25T11:19:21.494Z,1.5
2023-05-25T11:25:44.761Z,2.2
2023-05-25T11:32:04.477Z,2.2
2023-05-25T11:38:27.556Z,4.2
2023-05-25T11:44:47.499Z,4.2
2023-05-25T11:51:10.474Z,2.2
2023-05-25T11:57:30.565Z,2.2
2023-05-25T12:03:53.601Z,2.2
2023-05-25T12:10:13.525Z,2.2
2023-05-25T12:16:36.549Z,2.3
2023-05-25T12:22:56.483Z,2.3
2023-05-25T12:29:19.510Z,2.9
2023-05-25T12:35:39.514Z,2.9
2023-05-25T12:42:02.538Z,3.8
2023-05-25T12:48:22.501Z,3.8
2023-05-25T12:54:45.559Z,2.3
2023-05-25T13:01:05.504Z,2.3
2023-05-25T13:07:28.518Z,3.5
2023-05-25T13:13:48.729Z,3.5
2023-05-25T13:20:12.083Z,2.7
2023-05-25T13:26:31.577Z,2.7
2023-05-25T13:32:54.579Z,4.1
2023-05-25T13:39:14.523Z,4.1
2023-05-25T14:34:48.205Z,5.8
2023-05-25T14:41:08.490Z,5.8
2023-05-25T14:47:30.127Z,5.8
2023-05-25T14:53:50.335Z,5.8
2023-05-25T15:00:12.133Z,2.2
2023-05-25T15:06:32.210Z,2.2
2023-05-25T15:12:56.273Z,2.8
2023-05-25T15:19:17.641Z,2.8
2023-05-25T15:25:37.152Z,2.7
2023-05-25T15:31:57.178Z,2.7
2023-05-25T15:38:19.353Z,1.8
2023-05-25T15:44:39.254Z,1.8
2023-05-25T15:51:01.152Z,2.7
2023-05-25T15:57:21.149Z,2.7
2023-05-25T16:03:43.278Z,4.1
2023-05-25T16:10:02.265Z,4.1
2023-05-25T16:16:24.277Z,2.1
2023-05-25T16:22:44.113Z,2.1
2023-05-25T16:29:06.150Z,3.8
2023-05-25T16:35:26.447Z,3.8
2023-05-25T16:41:50.163Z,1.1
2023-05-25T16:48:08.145Z,1.1
2023-05-25T16:54:29.141Z,3.3
2023-05-25T17:00:49.109Z,3.3
2023-05-25T17:07:10.172Z,2.8
2023-05-25T17:13:30.125Z,2.8
2023-05-25T17:19:52.135Z,2.3
2023-05-25T17:26:11.176Z,2.3
2023-05-25T17:32:33.130Z,2.1
2023-05-25T17:38:52.154Z,2.1
2023-05-25T17:45:14.223Z,3.5
2023-05-25T17:51:34.111Z,3.5
2023-05-25T17:57:55.139Z,3
2023-05-25T18:04:15.315Z,3
2023-05-25T18:10:37.133Z,3.3
2023-05-25T18:16:57.197Z,3.3
2023-05-25T18:23:19.137Z,3.6
2023-05-25T18:29:38.251Z,3.6
2023-05-25T18:36:00.145Z,0.5
2023-05-25T18:42:20.669Z,0.5
2023-05-25T18:48:42.306Z,3.4
2023-05-25T18:55:02.163Z,3.4
2023-05-25T19:01:24.246Z,3.5
2023-05-25T19:07:58.135Z,3.5
2023-05-25T19:14:06.146Z,1.8
2023-05-25T19:20:26.258Z,1.8
2023-05-25T19:26:49.766Z,2.8
2023-05-25T19:33:08.173Z,2.8
2023-05-25T19:39:30.176Z,2.4
2023-05-25T19:45:50.202Z,2.4
2023-05-25T20:09:47.080Z,4.8
2023-05-25T20:16:08.145Z,4.8
2023-05-25T20:22:28.143Z,4.8
2023-05-25T20:28:50.171Z,1.8
2023-05-25T20:35:10.142Z,1.8
2023-05-25T20:41:32.221Z,2
2023-05-25T20:47:52.255Z,2
2023-05-25T20:54:14.163Z,1.9
2023-05-25T21:00:34.156Z,1.9
2023-05-25T21:06:56.143Z,2.9
2023-05-25T21:13:16.197Z,2.9
2023-05-25T21:19:38.119Z,2.7
2023-05-25T21:25:58.198Z,2.7
2023-05-25T21:32:20.197Z,2
2023-05-25T21:38:40.150Z,2
2023-05-25T21:45:02.254Z,3
2023-05-25T21:51:22.093Z,3
2023-05-25T21:57:43.159Z,2.5
2023-05-25T22:21:58.133Z,6.2
2023-05-25T22:28:18.142Z,6.2
2023-05-25T22:34:40.092Z,6.2
2023-05-25T22:40:59.251Z,6.2
2023-05-25T22:47:21.153Z,2.3
2023-05-25T22:53:41.204Z,2.3
2023-05-25T23:00:03.173Z,3
2023-05-25T23:06:23.168Z,3
2023-05-25T23:12:45.147Z,3
2023-05-25T23:19:05.254Z,3
2023-05-25T23:25:27.185Z,3.7
2023-05-25T23:31:47.203Z,3.7
2023-05-25T23:38:09.158Z,2.9
2023-05-25T23:44:29.171Z,2.9
2023-05-25T23:50:51.160Z,1.7
2023-05-25T23:57:11.184Z,1.7
